ZJHK

Haikou Meilan International Airport

Haikou, China
TAF ZJHK 220902Z 2212/2312 04004MPS 9999 BKN023 TX19/2306Z TN14/2221Z
Issued Valid From Valid To
Jan-22 @ 09:02 UTC
(8 hours ago)
Jan-22 @ 12:00 UTC
(5 hours ago)
Jan-23 @ 12:00 UTC
(in 19 hours)
Jan-22 @ 12:00 to Jan-23 @ 12:00
TAF ZJHK 220902Z 2212/2312 04004MPS 9999 BKN023 TX19/2306Z TN14/2221Z
Wind Visibility Clouds
40° at 8 knots 10,000+ meters
  • Broken at 2,300' AGL
TAF ZJHK 220902Z 2212/2312 04004MPS 9999 BKN023 TX19/2306Z TN14/2221Z
Issued Jan-22 @ 09:02 UTC
(8 hours ago)
Valid From Jan-22 @ 12:00 UTC
(5 hours ago)
Valid To Jan-23 @ 12:00 UTC
(in 19 hours)
Jan-22 @ 12:00 - Jan-23 @ 12:00
Wind Visibility
40° at 8 knots 10,000+ meters
Clouds
  • Broken at 2,300' AGL